sensor_id;sensor_type;location;lat;lon;timestamp;P1;durP1;ratioP1;P2;durP2;ratioP2
2672;SDS011;1346;51.558;6.996;2022-11-18T00:00:54;7.70;;;4.72;;
2672;SDS011;1346;51.558;6.996;2022-11-18T00:03:21;11.68;;;4.85;;
2672;SDS011;1346;51.558;6.996;2022-11-18T00:05:52;9.82;;;5.20;;
2672;SDS011;1346;51.558;6.996;2022-11-18T00:08:19;7.53;;;4.90;;
2672;SDS011;1346;51.558;6.996;2022-11-18T00:10:46;5.93;;;3.97;;
2672;SDS011;1346;51.558;6.996;2022-11-18T00:13:15;6.75;;;4.45;;
2672;SDS011;1346;51.558;6.996;2022-11-18T00:16:00;7.53;;;4.15;;
2672;SDS011;1346;51.558;6.996;2022-11-18T00:18:27;6.53;;;3.75;;
2672;SDS011;1346;51.558;6.996;2022-11-18T00:20:55;6.35;;;4.10;;
2672;SDS011;1346;51.558;6.996;2022-11-18T00:30:50;8.18;;;3.17;;
2672;SDS011;1346;51.558;6.996;2022-11-18T00:33:17;5.35;;;3.05;;
2672;SDS011;1346;51.558;6.996;2022-11-18T00:35:51;8.82;;;3.30;;
2672;SDS011;1346;51.558;6.996;2022-11-18T00:38:18;7.13;;;3.45;;
2672;SDS011;1346;51.558;6.996;2022-11-18T00:40:45;6.13;;;2.80;;
2672;SDS011;1346;51.558;6.996;2022-11-18T00:43:12;9.45;;;3.78;;
2672;SDS011;1346;51.558;6.996;2022-11-18T00:45:38;5.37;;;2.80;;
2672;SDS011;1346;51.558;6.996;2022-11-18T00:48:06;5.80;;;3.55;;
2672;SDS011;1346;51.558;6.996;2022-11-18T00:50:33;7.93;;;2.75;;
2672;SDS011;1346;51.558;6.996;2022-11-18T00:53:00;9.90;;;3.15;;
2672;SDS011;1346;51.558;6.996;2022-11-18T00:55:27;5.93;;;2.97;;
2672;SDS011;1346;51.558;6.996;2022-11-18T00:57:54;7.03;;;3.05;;
2672;SDS011;1346;51.558;6.996;2022-11-18T01:00:21;7.68;;;3.28;;
2672;SDS011;1346;51.558;6.996;2022-11-18T01:02:48;3.88;;;2.70;;
2672;SDS011;1346;51.558;6.996;2022-11-18T01:05:16;5.55;;;3.25;;
2672;SDS011;1346;51.558;6.996;2022-11-18T01:07:43;4.95;;;2.50;;
2672;SDS011;1346;51.558;6.996;2022-11-18T01:10:11;7.78;;;2.83;;
2672;SDS011;1346;51.558;6.996;2022-11-18T01:12:38;5.22;;;2.83;;
2672;SDS011;1346;51.558;6.996;2022-11-18T01:15:22;3.95;;;2.78;;
2672;SDS011;1346;51.558;6.996;2022-11-18T01:17:49;7.35;;;3.05;;
2672;SDS011;1346;51.558;6.996;2022-11-18T01:20:17;7.60;;;3.28;;
2672;SDS011;1346;51.558;6.996;2022-11-18T01:22:44;6.32;;;3.40;;
2672;SDS011;1346;51.558;6.996;2022-11-18T01:25:11;7.25;;;3.33;;
2672;SDS011;1346;51.558;6.996;2022-11-18T01:27:38;4.50;;;2.60;;
2672;SDS011;1346;51.558;6.996;2022-11-18T01:30:05;7.80;;;3.50;;
2672;SDS011;1346;51.558;6.996;2022-11-18T01:32:33;6.05;;;3.00;;
2672;SDS011;1346;51.558;6.996;2022-11-18T01:35:00;5.10;;;3.33;;
2672;SDS011;1346;51.558;6.996;2022-11-18T01:37:28;10.98;;;3.63;;
2672;SDS011;1346;51.558;6.996;2022-11-18T01:39:55;6.30;;;2.83;;
2672;SDS011;1346;51.558;6.996;2022-11-18T01:42:22;10.45;;;3.40;;
2672;SDS011;1346;51.558;6.996;2022-11-18T01:44:55;8.00;;;3.75;;
2672;SDS011;1346;51.558;6.996;2022-11-18T01:47:27;6.40;;;3.65;;
2672;SDS011;1346;51.558;6.996;2022-11-18T01:49:57;6.55;;;3.50;;
2672;SDS011;1346;51.558;6.996;2022-11-18T01:52:25;7.70;;;3.55;;
2672;SDS011;1346;51.558;6.996;2022-11-18T01:54:56;9.98;;;3.60;;
2672;SDS011;1346;51.558;6.996;2022-11-18T01:57:28;6.38;;;3.45;;
2672;SDS011;1346;51.558;6.996;2022-11-18T01:59:58;11.70;;;4.20;;
2672;SDS011;1346;51.558;6.996;2022-11-18T02:02:29;6.50;;;3.92;;
2672;SDS011;1346;51.558;6.996;2022-11-18T02:04:57;5.70;;;3.72;;
2672;SDS011;1346;51.558;6.996;2022-11-18T02:07:25;7.10;;;3.75;;
2672;SDS011;1346;51.558;6.996;2022-11-18T02:09:53;6.68;;;4.55;;
2672;SDS011;1346;51.558;6.996;2022-11-18T02:12:24;8.68;;;3.95;;
2672;SDS011;1346;51.558;6.996;2022-11-18T02:14:51;5.80;;;4.10;;
2672;SDS011;1346;51.558;6.996;2022-11-18T02:17:22;8.20;;;4.10;;
2672;SDS011;1346;51.558;6.996;2022-11-18T02:20:17;4.22;;;3.10;;
2672;SDS011;1346;51.558;6.996;2022-11-18T02:23:03;7.45;;;3.58;;
2672;SDS011;1346;51.558;6.996;2022-11-18T02:26:35;5.75;;;3.58;;
2672;SDS011;1346;51.558;6.996;2022-11-18T02:29:23;6.45;;;2.90;;
2672;SDS011;1346;51.558;6.996;2022-11-18T02:31:54;5.10;;;3.13;;
2672;SDS011;1346;51.558;6.996;2022-11-18T02:34:31;6.15;;;3.08;;
2672;SDS011;1346;51.558;6.996;2022-11-18T02:37:06;5.60;;;3.47;;
2672;SDS011;1346;51.558;6.996;2022-11-18T02:39:41;6.95;;;3.00;;
2672;SDS011;1346;51.558;6.996;2022-11-18T02:42:17;6.50;;;3.45;;
2672;SDS011;1346;51.558;6.996;2022-11-18T02:44:48;5.32;;;3.10;;
2672;SDS011;1346;51.558;6.996;2022-11-18T02:47:20;5.15;;;3.03;;
2672;SDS011;1346;51.558;6.996;2022-11-18T02:49:50;5.25;;;2.97;;
2672;SDS011;1346;51.558;6.996;2022-11-18T02:52:22;8.35;;;3.60;;
2672;SDS011;1346;51.558;6.996;2022-11-18T02:54:52;5.43;;;3.22;;
2672;SDS011;1346;51.558;6.996;2022-11-18T02:57:22;8.43;;;3.45;;
2672;SDS011;1346;51.558;6.996;2022-11-18T02:59:52;9.65;;;3.70;;
2672;SDS011;1346;51.558;6.996;2022-11-18T03:02:18;6.88;;;3.92;;
2672;SDS011;1346;51.558;6.996;2022-11-18T03:04:48;4.72;;;3.15;;
2672;SDS011;1346;51.558;6.996;2022-11-18T03:07:30;7.82;;;3.90;;
2672;SDS011;1346;51.558;6.996;2022-11-18T03:10:01;8.00;;;3.55;;
2672;SDS011;1346;51.558;6.996;2022-11-18T03:12:30;8.93;;;3.90;;
2672;SDS011;1346;51.558;6.996;2022-11-18T03:15:08;9.38;;;3.63;;
2672;SDS011;1346;51.558;6.996;2022-11-18T03:17:43;4.40;;;3.10;;
2672;SDS011;1346;51.558;6.996;2022-11-18T03:20:20;12.45;;;4.43;;
2672;SDS011;1346;51.558;6.996;2022-11-18T03:22:52;6.45;;;3.95;;
2672;SDS011;1346;51.558;6.996;2022-11-18T03:25:24;8.70;;;4.43;;
2672;SDS011;1346;51.558;6.996;2022-11-18T03:27:58;9.73;;;4.18;;
2672;SDS011;1346;51.558;6.996;2022-11-18T03:30:33;10.73;;;5.13;;
2672;SDS011;1346;51.558;6.996;2022-11-18T03:33:04;8.82;;;4.88;;
2672;SDS011;1346;51.558;6.996;2022-11-18T03:35:37;7.47;;;4.40;;
2672;SDS011;1346;51.558;6.996;2022-11-18T03:38:09;12.07;;;4.85;;
2672;SDS011;1346;51.558;6.996;2022-11-18T03:40:40;8.52;;;5.18;;
2672;SDS011;1346;51.558;6.996;2022-11-18T03:43:15;12.98;;;4.65;;
2672;SDS011;1346;51.558;6.996;2022-11-18T03:45:48;7.88;;;4.80;;
2672;SDS011;1346;51.558;6.996;2022-11-18T03:48:19;7.47;;;4.50;;
2672;SDS011;1346;51.558;6.996;2022-11-18T03:50:52;10.60;;;5.25;;
2672;SDS011;1346;51.558;6.996;2022-11-18T03:53:24;8.23;;;4.60;;
2672;SDS011;1346;51.558;6.996;2022-11-18T03:55:57;5.53;;;4.53;;
2672;SDS011;1346;51.558;6.996;2022-11-18T03:58:32;9.60;;;5.57;;
2672;SDS011;1346;51.558;6.996;2022-11-18T04:01:10;7.60;;;4.93;;
2672;SDS011;1346;51.558;6.996;2022-11-18T04:03:41;10.07;;;4.57;;
2672;SDS011;1346;51.558;6.996;2022-11-18T04:06:11;10.35;;;5.38;;
2672;SDS011;1346;51.558;6.996;2022-11-18T04:08:48;9.27;;;4.80;;
2672;SDS011;1346;51.558;6.996;2022-11-18T04:11:22;10.68;;;4.63;;
2672;SDS011;1346;51.558;6.996;2022-11-18T04:14:11;7.60;;;4.63;;
2672;SDS011;1346;51.558;6.996;2022-11-18T04:16:43;8.15;;;4.85;;
2672;SDS011;1346;51.558;6.996;2022-11-18T04:19:16;8.93;;;4.53;;
2672;SDS011;1346;51.558;6.996;2022-11-18T04:21:43;8.57;;;4.28;;
2672;SDS011;1346;51.558;6.996;2022-11-18T04:24:10;11.55;;;5.10;;
2672;SDS011;1346;51.558;6.996;2022-11-18T04:26:37;7.90;;;3.80;;
2672;SDS011;1346;51.558;6.996;2022-11-18T04:29:04;8.00;;;4.82;;
2672;SDS011;1346;51.558;6.996;2022-11-18T04:31:30;8.52;;;4.35;;
2672;SDS011;1346;51.558;6.996;2022-11-18T04:33:59;10.85;;;4.30;;
2672;SDS011;1346;51.558;6.996;2022-11-18T04:36:26;6.20;;;4.22;;
2672;SDS011;1346;51.558;6.996;2022-11-18T04:38:53;7.90;;;4.63;;
2672;SDS011;1346;51.558;6.996;2022-11-18T04:41:19;8.73;;;4.80;;
2672;SDS011;1346;51.558;6.996;2022-11-18T04:44:07;7.05;;;4.95;;
2672;SDS011;1346;51.558;6.996;2022-11-18T04:46:37;9.05;;;4.93;;
2672;SDS011;1346;51.558;6.996;2022-11-18T04:49:07;9.20;;;4.68;;
2672;SDS011;1346;51.558;6.996;2022-11-18T04:51:35;12.88;;;4.80;;
2672;SDS011;1346;51.558;6.996;2022-11-18T04:54:02;14.40;;;5.45;;
2672;SDS011;1346;51.558;6.996;2022-11-18T04:56:30;13.10;;;6.10;;
2672;SDS011;1346;51.558;6.996;2022-11-18T04:58:57;9.80;;;5.78;;
2672;SDS011;1346;51.558;6.996;2022-11-18T05:01:24;12.25;;;6.57;;
2672;SDS011;1346;51.558;6.996;2022-11-18T05:03:52;9.55;;;4.75;;
2672;SDS011;1346;51.558;6.996;2022-11-18T05:06:20;10.45;;;5.55;;
2672;SDS011;1346;51.558;6.996;2022-11-18T05:08:48;13.50;;;5.50;;
2672;SDS011;1346;51.558;6.996;2022-11-18T05:11:15;11.18;;;5.68;;
2672;SDS011;1346;51.558;6.996;2022-11-18T05:13:59;14.07;;;5.80;;
2672;SDS011;1346;51.558;6.996;2022-11-18T05:16:27;12.50;;;7.10;;
2672;SDS011;1346;51.558;6.996;2022-11-18T05:18:54;13.27;;;6.32;;
2672;SDS011;1346;51.558;6.996;2022-11-18T05:21:22;13.63;;;6.50;;
2672;SDS011;1346;51.558;6.996;2022-11-18T05:23:49;16.20;;;7.20;;
2672;SDS011;1346;51.558;6.996;2022-11-18T05:26:16;11.55;;;6.85;;
2672;SDS011;1346;51.558;6.996;2022-11-18T05:28:42;11.10;;;7.15;;
2672;SDS011;1346;51.558;6.996;2022-11-18T05:31:10;10.63;;;7.10;;
2672;SDS011;1346;51.558;6.996;2022-11-18T05:33:39;13.02;;;8.38;;
2672;SDS011;1346;51.558;6.996;2022-11-18T05:36:07;13.20;;;7.35;;
2672;SDS011;1346;51.558;6.996;2022-11-18T05:38:38;13.52;;;7.18;;
2672;SDS011;1346;51.558;6.996;2022-11-18T05:41:05;13.90;;;6.80;;
2672;SDS011;1346;51.558;6.996;2022-11-18T05:43:33;12.70;;;7.00;;
2672;SDS011;1346;51.558;6.996;2022-11-18T05:46:00;11.18;;;7.35;;
2672;SDS011;1346;51.558;6.996;2022-11-18T05:48:28;11.73;;;6.75;;
2672;SDS011;1346;51.558;6.996;2022-11-18T05:50:55;15.32;;;7.68;;
2672;SDS011;1346;51.558;6.996;2022-11-18T05:53:23;12.57;;;7.07;;
2672;SDS011;1346;51.558;6.996;2022-11-18T05:55:52;12.45;;;7.13;;
2672;SDS011;1346;51.558;6.996;2022-11-18T05:58:25;15.40;;;6.75;;
2672;SDS011;1346;51.558;6.996;2022-11-18T06:00:53;19.05;;;6.63;;
2672;SDS011;1346;51.558;6.996;2022-11-18T06:03:24;9.50;;;6.25;;
2672;SDS011;1346;51.558;6.996;2022-11-18T06:05:56;11.48;;;6.00;;
2672;SDS011;1346;51.558;6.996;2022-11-18T06:08:27;9.52;;;5.93;;
2672;SDS011;1346;51.558;6.996;2022-11-18T06:10:59;13.02;;;6.75;;
2672;SDS011;1346;51.558;6.996;2022-11-18T06:13:27;13.32;;;6.13;;
2672;SDS011;1346;51.558;6.996;2022-11-18T06:16:00;10.77;;;5.35;;
2672;SDS011;1346;51.558;6.996;2022-11-18T06:18:28;10.95;;;5.63;;
2672;SDS011;1346;51.558;6.996;2022-11-18T06:20:57;14.90;;;5.38;;
2672;SDS011;1346;51.558;6.996;2022-11-18T06:23:28;9.32;;;4.88;;
2672;SDS011;1346;51.558;6.996;2022-11-18T06:26:00;7.35;;;5.43;;
2672;SDS011;1346;51.558;6.996;2022-11-18T06:28:28;11.70;;;6.13;;
2672;SDS011;1346;51.558;6.996;2022-11-18T06:30:55;11.57;;;6.22;;
2672;SDS011;1346;51.558;6.996;2022-11-18T06:33:23;14.20;;;6.10;;
2672;SDS011;1346;51.558;6.996;2022-11-18T06:35:49;17.20;;;6.00;;
2672;SDS011;1346;51.558;6.996;2022-11-18T06:38:16;11.02;;;6.45;;
2672;SDS011;1346;51.558;6.996;2022-11-18T06:40:43;15.10;;;6.97;;
2672;SDS011;1346;51.558;6.996;2022-11-18T06:43:11;16.38;;;6.43;;
2672;SDS011;1346;51.558;6.996;2022-11-18T06:45:57;10.95;;;5.82;;
2672;SDS011;1346;51.558;6.996;2022-11-18T06:48:41;14.07;;;7.15;;
2672;SDS011;1346;51.558;6.996;2022-11-18T06:51:08;18.10;;;6.35;;
2672;SDS011;1346;51.558;6.996;2022-11-18T06:53:35;11.30;;;6.47;;
2672;SDS011;1346;51.558;6.996;2022-11-18T06:56:02;11.98;;;6.05;;
2672;SDS011;1346;51.558;6.996;2022-11-18T06:58:31;14.00;;;6.15;;
2672;SDS011;1346;51.558;6.996;2022-11-18T07:01:07;16.67;;;5.63;;
2672;SDS011;1346;51.558;6.996;2022-11-18T07:03:36;16.63;;;9.15;;
2672;SDS011;1346;51.558;6.996;2022-11-18T07:06:03;11.75;;;6.07;;
2672;SDS011;1346;51.558;6.996;2022-11-18T07:08:31;19.23;;;7.25;;
2672;SDS011;1346;51.558;6.996;2022-11-18T07:10:59;12.82;;;6.72;;
2672;SDS011;1346;51.558;6.996;2022-11-18T07:13:26;14.25;;;5.60;;
2672;SDS011;1346;51.558;6.996;2022-11-18T07:15:54;7.88;;;5.22;;
2672;SDS011;1346;51.558;6.996;2022-11-18T07:18:21;11.52;;;5.95;;
2672;SDS011;1346;51.558;6.996;2022-11-18T07:20:48;11.05;;;5.32;;
2672;SDS011;1346;51.558;6.996;2022-11-18T07:23:15;12.05;;;5.50;;
2672;SDS011;1346;51.558;6.996;2022-11-18T07:25:42;15.68;;;5.65;;
2672;SDS011;1346;51.558;6.996;2022-11-18T07:28:08;11.73;;;5.65;;
2672;SDS011;1346;51.558;6.996;2022-11-18T07:30:35;9.83;;;5.50;;
2672;SDS011;1346;51.558;6.996;2022-11-18T07:33:03;9.35;;;5.20;;
2672;SDS011;1346;51.558;6.996;2022-11-18T07:35:31;10.15;;;5.30;;
2672;SDS011;1346;51.558;6.996;2022-11-18T07:37:58;8.43;;;4.00;;
2672;SDS011;1346;51.558;6.996;2022-11-18T07:40:25;11.43;;;5.40;;
2672;SDS011;1346;51.558;6.996;2022-11-18T07:42:52;8.50;;;4.40;;
2672;SDS011;1346;51.558;6.996;2022-11-18T07:45:19;14.23;;;4.20;;
2672;SDS011;1346;51.558;6.996;2022-11-18T07:47:46;8.50;;;4.53;;
2672;SDS011;1346;51.558;6.996;2022-11-18T07:50:14;12.00;;;5.05;;
2672;SDS011;1346;51.558;6.996;2022-11-18T07:52:42;11.05;;;5.10;;
2672;SDS011;1346;51.558;6.996;2022-11-18T07:55:09;12.35;;;5.07;;
2672;SDS011;1346;51.558;6.996;2022-11-18T07:57:36;11.10;;;6.00;;
2672;SDS011;1346;51.558;6.996;2022-11-18T08:00:03;9.40;;;5.10;;
2672;SDS011;1346;51.558;6.996;2022-11-18T08:02:31;10.70;;;5.60;;
2672;SDS011;1346;51.558;6.996;2022-11-18T08:04:58;10.18;;;5.50;;
2672;SDS011;1346;51.558;6.996;2022-11-18T08:07:26;12.10;;;5.80;;
2672;SDS011;1346;51.558;6.996;2022-11-18T08:09:53;11.55;;;5.50;;
2672;SDS011;1346;51.558;6.996;2022-11-18T08:12:20;7.85;;;4.28;;
2672;SDS011;1346;51.558;6.996;2022-11-18T08:14:47;9.07;;;4.80;;
2672;SDS011;1346;51.558;6.996;2022-11-18T08:17:14;8.43;;;5.40;;
2672;SDS011;1346;51.558;6.996;2022-11-18T08:19:41;8.48;;;4.60;;
2672;SDS011;1346;51.558;6.996;2022-11-18T08:22:07;12.93;;;5.50;;
2672;SDS011;1346;51.558;6.996;2022-11-18T08:24:36;15.27;;;6.13;;
2672;SDS011;1346;51.558;6.996;2022-11-18T08:27:03;14.88;;;6.22;;
2672;SDS011;1346;51.558;6.996;2022-11-18T08:29:29;15.90;;;6.00;;
2672;SDS011;1346;51.558;6.996;2022-11-18T08:31:56;10.40;;;4.70;;
2672;SDS011;1346;51.558;6.996;2022-11-18T08:34:23;10.73;;;5.70;;
2672;SDS011;1346;51.558;6.996;2022-11-18T08:36:50;15.32;;;5.85;;
2672;SDS011;1346;51.558;6.996;2022-11-18T08:39:17;14.50;;;6.40;;
2672;SDS011;1346;51.558;6.996;2022-11-18T08:41:45;14.70;;;6.23;;
2672;SDS011;1346;51.558;6.996;2022-11-18T08:44:13;13.48;;;5.60;;
2672;SDS011;1346;51.558;6.996;2022-11-18T08:46:41;11.50;;;5.93;;
2672;SDS011;1346;51.558;6.996;2022-11-18T08:49:09;14.03;;;6.10;;
2672;SDS011;1346;51.558;6.996;2022-11-18T08:51:37;16.83;;;8.10;;
2672;SDS011;1346;51.558;6.996;2022-11-18T08:54:04;11.13;;;7.33;;
2672;SDS011;1346;51.558;6.996;2022-11-18T08:56:31;11.23;;;7.00;;
2672;SDS011;1346;51.558;6.996;2022-11-18T08:58:59;13.50;;;6.63;;
2672;SDS011;1346;51.558;6.996;2022-11-18T09:01:26;14.23;;;7.23;;
2672;SDS011;1346;51.558;6.996;2022-11-18T09:03:53;16.50;;;7.10;;
2672;SDS011;1346;51.558;6.996;2022-11-18T09:06:22;11.50;;;6.30;;
2672;SDS011;1346;51.558;6.996;2022-11-18T09:08:50;18.90;;;7.73;;
2672;SDS011;1346;51.558;6.996;2022-11-18T09:11:18;11.03;;;6.73;;
2672;SDS011;1346;51.558;6.996;2022-11-18T09:13:47;10.33;;;6.67;;
2672;SDS011;1346;51.558;6.996;2022-11-18T09:16:19;9.07;;;5.57;;
2672;SDS011;1346;51.558;6.996;2022-11-18T09:18:47;11.10;;;6.33;;
2672;SDS011;1346;51.558;6.996;2022-11-18T09:21:14;13.57;;;6.17;;
2672;SDS011;1346;51.558;6.996;2022-11-18T09:23:42;11.47;;;6.10;;
2672;SDS011;1346;51.558;6.996;2022-11-18T09:26:10;10.80;;;6.40;;
2672;SDS011;1346;51.558;6.996;2022-11-18T09:28:39;10.10;;;6.60;;
2672;SDS011;1346;51.558;6.996;2022-11-18T09:31:07;12.43;;;6.85;;
2672;SDS011;1346;51.558;6.996;2022-11-18T09:33:38;9.25;;;5.65;;
2672;SDS011;1346;51.558;6.996;2022-11-18T09:36:10;10.30;;;6.00;;
2672;SDS011;1346;51.558;6.996;2022-11-18T09:38:38;11.47;;;6.03;;
2672;SDS011;1346;51.558;6.996;2022-11-18T09:41:08;16.00;;;6.30;;
2672;SDS011;1346;51.558;6.996;2022-11-18T09:43:48;8.13;;;5.70;;
2672;SDS011;1346;51.558;6.996;2022-11-18T09:46:33;10.23;;;6.27;;
2672;SDS011;1346;51.558;6.996;2022-11-18T09:49:15;13.27;;;6.37;;
2672;SDS011;1346;51.558;6.996;2022-11-18T09:51:51;9.63;;;5.23;;
2672;SDS011;1346;51.558;6.996;2022-11-18T09:54:19;13.97;;;6.17;;
2672;SDS011;1346;51.558;6.996;2022-11-18T09:56:49;14.23;;;6.73;;
2672;SDS011;1346;51.558;6.996;2022-11-18T09:59:18;10.30;;;6.07;;
2672;SDS011;1346;51.558;6.996;2022-11-18T10:01:48;11.63;;;6.17;;
2672;SDS011;1346;51.558;6.996;2022-11-18T10:04:19;10.60;;;6.37;;
2672;SDS011;1346;51.558;6.996;2022-11-18T10:06:47;10.37;;;6.23;;
2672;SDS011;1346;51.558;6.996;2022-11-18T10:09:24;11.90;;;6.87;;
2672;SDS011;1346;51.558;6.996;2022-11-18T10:12:00;8.47;;;5.57;;
2672;SDS011;1346;51.558;6.996;2022-11-18T10:14:47;10.90;;;6.10;;
2672;SDS011;1346;51.558;6.996;2022-11-18T10:17:40;11.90;;;6.73;;
2672;SDS011;1346;51.558;6.996;2022-11-18T10:20:26;11.17;;;7.27;;
2672;SDS011;1346;51.558;6.996;2022-11-18T10:23:07;8.77;;;5.13;;
2672;SDS011;1346;51.558;6.996;2022-11-18T10:25:41;9.90;;;5.27;;
2672;SDS011;1346;51.558;6.996;2022-11-18T10:28:15;13.00;;;6.07;;
2672;SDS011;1346;51.558;6.996;2022-11-18T10:30:46;12.57;;;6.30;;
2672;SDS011;1346;51.558;6.996;2022-11-18T10:33:22;8.80;;;6.13;;
2672;SDS011;1346;51.558;6.996;2022-11-18T10:38:45;10.73;;;5.67;;
2672;SDS011;1346;51.558;6.996;2022-11-18T10:41:13;14.63;;;6.40;;
2672;SDS011;1346;51.558;6.996;2022-11-18T10:43:47;12.50;;;6.87;;
2672;SDS011;1346;51.558;6.996;2022-11-18T10:46:18;8.83;;;6.53;;
2672;SDS011;1346;51.558;6.996;2022-11-18T10:49:11;10.40;;;5.40;;
2672;SDS011;1346;51.558;6.996;2022-11-18T10:51:41;11.40;;;6.47;;
2672;SDS011;1346;51.558;6.996;2022-11-18T10:54:14;9.80;;;5.63;;
2672;SDS011;1346;51.558;6.996;2022-11-18T10:56:43;11.13;;;6.50;;
2672;SDS011;1346;51.558;6.996;2022-11-18T10:59:16;15.00;;;6.77;;
2672;SDS011;1346;51.558;6.996;2022-11-18T11:01:56;10.03;;;6.00;;
2672;SDS011;1346;51.558;6.996;2022-11-18T11:04:26;11.20;;;5.73;;
2672;SDS011;1346;51.558;6.996;2022-11-18T11:06:55;14.83;;;6.50;;
2672;SDS011;1346;51.558;6.996;2022-11-18T11:09:28;11.30;;;5.70;;
2672;SDS011;1346;51.558;6.996;2022-11-18T11:11:57;12.53;;;6.23;;
2672;SDS011;1346;51.558;6.996;2022-11-18T11:14:30;12.67;;;6.50;;
2672;SDS011;1346;51.558;6.996;2022-11-18T11:17:03;12.17;;;7.50;;
2672;SDS011;1346;51.558;6.996;2022-11-18T11:19:37;11.20;;;8.30;;
2672;SDS011;1346;51.558;6.996;2022-11-18T11:22:13;11.83;;;6.50;;
2672;SDS011;1346;51.558;6.996;2022-11-18T11:24:42;12.70;;;7.50;;
2672;SDS011;1346;51.558;6.996;2022-11-18T11:27:14;21.70;;;8.90;;
2672;SDS011;1346;51.558;6.996;2022-11-18T11:30:07;16.60;;;8.07;;
2672;SDS011;1346;51.558;6.996;2022-11-18T11:36:07;20.90;;;7.80;;
2672;SDS011;1346;51.558;6.996;2022-11-18T11:38:52;18.63;;;10.10;;
2672;SDS011;1346;51.558;6.996;2022-11-18T11:41:29;12.83;;;9.43;;
2672;SDS011;1346;51.558;6.996;2022-11-18T11:44:20;21.53;;;10.60;;
2672;SDS011;1346;51.558;6.996;2022-11-18T11:47:03;12.00;;;8.70;;
2672;SDS011;1346;51.558;6.996;2022-11-18T11:50:06;13.90;;;8.47;;
2672;SDS011;1346;51.558;6.996;2022-11-18T11:52:41;10.37;;;7.10;;
2672;SDS011;1346;51.558;6.996;2022-11-18T11:55:21;9.37;;;6.57;;
2672;SDS011;1346;51.558;6.996;2022-11-18T11:57:59;10.00;;;5.90;;
2672;SDS011;1346;51.558;6.996;2022-11-18T12:00:45;10.00;;;5.67;;
2672;SDS011;1346;51.558;6.996;2022-11-18T12:03:32;10.07;;;5.30;;
2672;SDS011;1346;51.558;6.996;2022-11-18T12:06:09;9.93;;;5.47;;
2672;SDS011;1346;51.558;6.996;2022-11-18T12:08:37;11.53;;;6.60;;
2672;SDS011;1346;51.558;6.996;2022-11-18T12:11:14;9.57;;;5.90;;
2672;SDS011;1346;51.558;6.996;2022-11-18T12:13:49;14.43;;;6.53;;
2672;SDS011;1346;51.558;6.996;2022-11-18T12:16:25;15.33;;;6.80;;
2672;SDS011;1346;51.558;6.996;2022-11-18T12:19:00;13.80;;;6.93;;
2672;SDS011;1346;51.558;6.996;2022-11-18T12:21:52;9.30;;;5.80;;
2672;SDS011;1346;51.558;6.996;2022-11-18T12:24:37;10.10;;;5.20;;
2672;SDS011;1346;51.558;6.996;2022-11-18T12:27:10;14.33;;;5.90;;
2672;SDS011;1346;51.558;6.996;2022-11-18T12:29:53;10.93;;;5.63;;
2672;SDS011;1346;51.558;6.996;2022-11-18T12:32:25;9.90;;;4.57;;
2672;SDS011;1346;51.558;6.996;2022-11-18T12:34:58;9.93;;;5.13;;
2672;SDS011;1346;51.558;6.996;2022-11-18T12:37:46;6.13;;;4.50;;
2672;SDS011;1346;51.558;6.996;2022-11-18T12:40:34;12.80;;;5.40;;
2672;SDS011;1346;51.558;6.996;2022-11-18T12:46:48;8.50;;;4.80;;
2672;SDS011;1346;51.558;6.996;2022-11-18T12:52:44;8.70;;;4.23;;
2672;SDS011;1346;51.558;6.996;2022-11-18T12:55:19;10.00;;;4.60;;
2672;SDS011;1346;51.558;6.996;2022-11-18T12:57:55;8.53;;;5.40;;
2672;SDS011;1346;51.558;6.996;2022-11-18T13:00:27;12.13;;;5.43;;
2672;SDS011;1346;51.558;6.996;2022-11-18T13:03:20;8.50;;;5.63;;
2672;SDS011;1346;51.558;6.996;2022-11-18T13:05:57;9.23;;;4.90;;
2672;SDS011;1346;51.558;6.996;2022-11-18T13:08:27;9.20;;;4.53;;
2672;SDS011;1346;51.558;6.996;2022-11-18T13:10:55;15.60;;;5.10;;
2672;SDS011;1346;51.558;6.996;2022-11-18T13:13:49;11.17;;;4.57;;
2672;SDS011;1346;51.558;6.996;2022-11-18T13:16:38;7.27;;;5.30;;
2672;SDS011;1346;51.558;6.996;2022-11-18T13:19:24;14.83;;;4.90;;
2672;SDS011;1346;51.558;6.996;2022-11-18T13:21:54;8.63;;;4.77;;
2672;SDS011;1346;51.558;6.996;2022-11-18T13:24:44;12.03;;;5.40;;
2672;SDS011;1346;51.558;6.996;2022-11-18T13:27:18;9.60;;;4.73;;
2672;SDS011;1346;51.558;6.996;2022-11-18T13:30:00;12.17;;;5.47;;
2672;SDS011;1346;51.558;6.996;2022-11-18T13:32:32;9.80;;;4.20;;
2672;SDS011;1346;51.558;6.996;2022-11-18T13:35:06;16.87;;;4.50;;
2672;SDS011;1346;51.558;6.996;2022-11-18T13:37:46;11.70;;;4.40;;
2672;SDS011;1346;51.558;6.996;2022-11-18T13:40:20;19.20;;;5.40;;
2672;SDS011;1346;51.558;6.996;2022-11-18T13:42:50;14.70;;;5.67;;
2672;SDS011;1346;51.558;6.996;2022-11-18T13:45:17;9.60;;;4.43;;
2672;SDS011;1346;51.558;6.996;2022-11-18T13:47:49;11.10;;;4.93;;
2672;SDS011;1346;51.558;6.996;2022-11-18T13:50:21;11.50;;;4.90;;
2672;SDS011;1346;51.558;6.996;2022-11-18T13:52:59;12.17;;;5.67;;
2672;SDS011;1346;51.558;6.996;2022-11-18T13:55:35;14.00;;;5.23;;
2672;SDS011;1346;51.558;6.996;2022-11-18T13:58:19;12.73;;;4.03;;
2672;SDS011;1346;51.558;6.996;2022-11-18T14:01:01;7.40;;;3.47;;
2672;SDS011;1346;51.558;6.996;2022-11-18T14:03:32;10.90;;;4.17;;
2672;SDS011;1346;51.558;6.996;2022-11-18T14:06:06;11.87;;;4.10;;
2672;SDS011;1346;51.558;6.996;2022-11-18T14:08:34;4.40;;;2.90;;
2672;SDS011;1346;51.558;6.996;2022-11-18T14:11:03;5.47;;;3.83;;
2672;SDS011;1346;51.558;6.996;2022-11-18T14:13:32;7.83;;;4.40;;
2672;SDS011;1346;51.558;6.996;2022-11-18T14:16:03;10.63;;;5.40;;
2672;SDS011;1346;51.558;6.996;2022-11-18T14:18:58;11.40;;;5.33;;
2672;SDS011;1346;51.558;6.996;2022-11-18T14:21:26;10.73;;;5.20;;
2672;SDS011;1346;51.558;6.996;2022-11-18T14:23:54;9.80;;;4.77;;
2672;SDS011;1346;51.558;6.996;2022-11-18T14:26:25;14.43;;;5.07;;
2672;SDS011;1346;51.558;6.996;2022-11-18T14:28:54;13.47;;;4.73;;
2672;SDS011;1346;51.558;6.996;2022-11-18T14:31:24;8.83;;;4.70;;
2672;SDS011;1346;51.558;6.996;2022-11-18T14:34:04;13.50;;;7.13;;
2672;SDS011;1346;51.558;6.996;2022-11-18T14:36:42;17.47;;;9.50;;
2672;SDS011;1346;51.558;6.996;2022-11-18T14:39:18;16.13;;;9.47;;
2672;SDS011;1346;51.558;6.996;2022-11-18T14:41:48;11.60;;;6.27;;
2672;SDS011;1346;51.558;6.996;2022-11-18T14:44:16;9.53;;;4.67;;
2672;SDS011;1346;51.558;6.996;2022-11-18T14:46:45;11.33;;;4.57;;
2672;SDS011;1346;51.558;6.996;2022-11-18T14:49:18;11.20;;;4.47;;
2672;SDS011;1346;51.558;6.996;2022-11-18T14:51:47;10.00;;;5.00;;
2672;SDS011;1346;51.558;6.996;2022-11-18T14:54:15;13.10;;;7.20;;
2672;SDS011;1346;51.558;6.996;2022-11-18T14:56:44;15.00;;;7.70;;
2672;SDS011;1346;51.558;6.996;2022-11-18T14:59:14;10.07;;;5.80;;
2672;SDS011;1346;51.558;6.996;2022-11-18T15:01:43;11.23;;;6.80;;
2672;SDS011;1346;51.558;6.996;2022-11-18T15:04:11;8.40;;;5.70;;
2672;SDS011;1346;51.558;6.996;2022-11-18T15:06:42;9.70;;;5.60;;
2672;SDS011;1346;51.558;6.996;2022-11-18T15:09:10;13.17;;;6.50;;
2672;SDS011;1346;51.558;6.996;2022-11-18T15:11:37;11.90;;;5.10;;
2672;SDS011;1346;51.558;6.996;2022-11-18T15:14:04;10.00;;;5.10;;
2672;SDS011;1346;51.558;6.996;2022-11-18T15:16:31;10.23;;;4.70;;
2672;SDS011;1346;51.558;6.996;2022-11-18T15:19:00;10.07;;;4.77;;
2672;SDS011;1346;51.558;6.996;2022-11-18T15:21:30;11.33;;;4.90;;
2672;SDS011;1346;51.558;6.996;2022-11-18T15:23:59;9.23;;;5.00;;
2672;SDS011;1346;51.558;6.996;2022-11-18T15:26:27;8.33;;;5.37;;
2672;SDS011;1346;51.558;6.996;2022-11-18T15:28:59;11.03;;;4.90;;
2672;SDS011;1346;51.558;6.996;2022-11-18T15:31:27;10.20;;;5.90;;
2672;SDS011;1346;51.558;6.996;2022-11-18T15:33:54;6.07;;;5.17;;
2672;SDS011;1346;51.558;6.996;2022-11-18T15:36:21;11.30;;;5.53;;
2672;SDS011;1346;51.558;6.996;2022-11-18T15:38:50;10.93;;;5.10;;
2672;SDS011;1346;51.558;6.996;2022-11-18T15:41:20;9.27;;;4.60;;
2672;SDS011;1346;51.558;6.996;2022-11-18T15:43:49;9.40;;;5.60;;
2672;SDS011;1346;51.558;6.996;2022-11-18T15:46:17;7.37;;;4.20;;
2672;SDS011;1346;51.558;6.996;2022-11-18T15:48:46;6.30;;;4.70;;
2672;SDS011;1346;51.558;6.996;2022-11-18T15:51:16;10.47;;;5.70;;
2672;SDS011;1346;51.558;6.996;2022-11-18T15:53:43;10.13;;;5.47;;
2672;SDS011;1346;51.558;6.996;2022-11-18T15:56:14;12.37;;;5.80;;